Time;durP1;ratioP1;P1;durP2;ratioP2;P2;SDS_P1;SDS_P2;PMS_P1;PMS_P2;Temp;Humidity;BMP_temperature;BMP_pressure;BME280_temperature;BME280_humidity;BME280_pressure;Samples;Min_cycle;Max_cycle;Signal;HPM_P1;HPM_P2
2023/06/06 00:00:10;;;;;;;8.55;6.65;;;;;;;16.41;100.00;98414.56;2607508;28;20167;-86
2023/06/06 00:01:27;;;;;;;14.10;7.45;;;;;;;16.36;100.00;98406.88;2607809;28;20125;-85
2023/06/06 00:02:44;;;;;;;7.68;6.50;;;;;;;16.33;100.00;98411.47;2607774;28;20497;-85
2023/06/06 00:04:00;;;;;;;8.00;6.53;;;;;;;16.27;100.00;98410.00;2608473;28;20148;-86
2023/06/06 00:05:16;;;;;;;7.93;6.82;;;;;;;16.27;100.00;98414.44;2607735;28;20122;-85
2023/06/06 00:06:35;;;;;;;8.50;7.60;;;;;;;16.17;100.00;98414.91;2608162;28;20088;-85
2023/06/06 00:07:52;;;;;;;8.85;7.80;;;;;;;16.26;100.00;98413.56;2607684;28;20077;-85
2023/06/06 00:09:07;;;;;;;8.63;7.53;;;;;;;16.31;100.00;98416.84;2607976;28;20125;-86
2023/06/06 00:10:23;;;;;;;8.55;7.30;;;;;;;16.22;100.00;98407.63;2607103;28;20140;-85
2023/06/06 00:11:39;;;;;;;8.52;7.60;;;;;;;16.37;100.00;98415.69;2608032;28;20049;-85
2023/06/06 00:12:55;;;;;;;9.40;6.78;;;;;;;16.38;100.00;98412.09;2607580;28;20091;-85
2023/06/06 00:14:12;;;;;;;9.68;7.35;;;;;;;16.37;100.00;98415.69;2608130;28;20389;-85
2023/06/06 00:15:28;;;;;;;12.40;8.48;;;;;;;16.38;100.00;98412.09;2607908;28;20496;-85
2023/06/06 00:16:48;;;;;;;8.32;7.38;;;;;;;16.36;100.00;98406.88;2605544;28;20288;-86
2023/06/06 00:18:04;;;;;;;10.27;7.85;;;;;;;16.41;100.00;98409.28;2607095;28;20099;-86
2023/06/06 00:19:20;;;;;;;9.45;7.55;;;;;;;16.44;100.00;98406.47;2607936;28;20049;-85
2023/06/06 00:20:36;;;;;;;7.78;6.82;;;;;;;16.44;100.00;98413.56;2607729;28;20397;-85
2023/06/06 00:21:52;;;;;;;7.88;7.03;;;;;;;16.30;100.00;98406.34;2607815;28;20049;-85
2023/06/06 00:23:07;;;;;;;9.68;7.57;;;;;;;16.37;100.00;98408.59;2607206;28;20091;-85
2023/06/06 00:24:24;;;;;;;9.15;7.32;;;;;;;16.40;100.00;98407.59;2608490;28;20834;-85
2023/06/06 00:25:40;;;;;;;9.85;7.50;;;;;;;16.36;100.00;98406.06;2607678;28;20523;-85
2023/06/06 00:26:55;;;;;;;9.05;7.30;;;;;;;16.34;100.00;98399.97;2607722;28;20076;-85
2023/06/06 00:28:11;;;;;;;8.35;7.07;;;;;;;16.30;100.00;98396.66;2607303;28;20045;-84
2023/06/06 00:29:27;;;;;;;8.63;6.82;;;;;;;16.26;100.00;98389.81;2608310;28;20421;-85
2023/06/06 00:30:42;;;;;;;8.77;7.05;;;;;;;16.23;100.00;98395.25;2607877;28;20094;-86
2023/06/06 00:31:58;;;;;;;12.23;8.63;;;;;;;16.18;100.00;98397.28;2608302;28;20065;-85
2023/06/06 00:33:13;;;;;;;10.10;8.07;;;;;;;16.21;100.00;98389.19;2607640;28;20049;-86
2023/06/06 00:34:29;;;;;;;12.05;8.15;;;;;;;16.21;100.00;98390.06;2608630;28;20103;-85
2023/06/06 00:35:44;;;;;;;9.20;7.80;;;;;;;16.32;100.00;98388.63;2608302;28;20077;-85
2023/06/06 00:37:00;;;;;;;12.82;9.07;;;;;;;16.28;100.00;98393.25;2607988;28;20138;-85
2023/06/06 00:38:16;;;;;;;11.35;8.32;;;;;;;16.21;100.00;98389.19;2608619;28;20763;-85
2023/06/06 00:39:31;;;;;;;9.98;8.10;;;;;;;16.30;100.00;98391.38;2607776;28;20488;-85
2023/06/06 00:40:47;;;;;;;9.90;8.32;;;;;;;16.38;100.00;98388.31;2608872;28;20049;-85
2023/06/06 00:42:03;;;;;;;10.57;7.80;;;;;;;16.40;100.00;98391.72;2608062;28;20088;-85
2023/06/06 00:43:18;;;;;;;11.02;8.25;;;;;;;16.40;100.00;98388.22;2609008;28;20056;-86
2023/06/06 00:44:34;;;;;;;12.45;8.57;;;;;;;16.39;100.00;98387.38;2608636;28;20049;-85
2023/06/06 00:45:51;;;;;;;10.48;8.32;;;;;;;16.38;100.00;98386.53;2608666;28;20083;-85
2023/06/06 00:47:08;;;;;;;11.07;8.32;;;;;;;16.46;100.00;98383.47;2608102;28;20497;-85
2023/06/06 00:48:24;;;;;;;10.63;8.00;;;;;;;16.46;100.00;98383.47;2608416;28;20080;-85
2023/06/06 00:49:42;;;;;;;9.95;7.78;;;;;;;16.35;100.00;98383.22;2608299;28;20504;-85
2023/06/06 00:50:59;;;;;;;11.00;8.48;;;;;;;16.36;100.00;98392.84;2608732;28;20045;-85
2023/06/06 00:52:16;;;;;;;10.68;8.57;;;;;;;16.43;100.00;98388.94;2607886;28;20392;-86
2023/06/06 00:53:32;;;;;;;11.80;8.70;;;;;;;16.49;100.00;98380.69;2608700;28;20090;-85
2023/06/06 00:54:48;;;;;;;9.35;7.60;;;;;;;16.51;100.00;98389.38;2608227;28;20084;-85
2023/06/06 00:56:05;;;;;;;9.73;8.02;;;;;;;16.54;100.00;98388.34;2608822;28;20084;-85
2023/06/06 00:57:21;;;;;;;9.48;8.23;;;;;;;16.56;100.00;98390.91;2608073;28;20052;-85
2023/06/06 00:58:36;;;;;;;9.77;8.02;;;;;;;16.58;100.00;98391.69;2608859;28;20056;-85
2023/06/06 00:59:53;;;;;;;12.10;9.20;;;;;;;16.24;100.00;98389.03;2608186;28;20053;-85
2023/06/06 01:01:10;;;;;;;10.93;8.55;;;;;;;16.08;100.00;98381.06;2608371;28;20631;-85
2023/06/06 01:02:28;;;;;;;11.45;8.45;;;;;;;16.11;100.00;98383.53;2608217;28;20056;-85
2023/06/06 01:03:44;;;;;;;11.32;8.90;;;;;;;15.95;100.00;98383.47;2608414;28;20069;-85
2023/06/06 01:05:01;;;;;;;11.25;8.80;;;;;;;16.13;100.00;98373.75;2607814;28;20052;-85
2023/06/06 01:06:17;;;;;;;12.77;9.00;;;;;;;15.98;100.00;98377.19;2608635;28;20045;-84
2023/06/06 01:07:33;;;;;;;11.88;9.27;;;;;;;16.14;100.00;98371.97;2608136;28;20037;-85
2023/06/06 01:08:48;;;;;;;10.77;8.88;;;;;;;16.09;100.00;98372.22;2608756;28;20044;-85
2023/06/06 01:10:09;;;;;;;12.23;8.50;;;;;;;16.24;100.00;98373.19;2608316;28;20049;-85
2023/06/06 01:11:31;;;;;;;10.48;8.50;;;;;;;16.27;100.00;98375.66;2607522;28;20072;-86
2023/06/06 01:13:05;;;;;;;12.10;9.27;;;;;;;16.28;100.00;98376.53;2607719;28;20052;-83
2023/06/06 01:14:39;;;;;;;10.57;8.27;;;;;;;16.33;100.00;98371.84;2608499;28;20041;-83
2023/06/06 01:16:01;;;;;;;9.77;7.93;;;;;;;16.41;100.00;98369.66;2607611;28;20155;-83
2023/06/06 01:17:18;;;;;;;11.13;9.03;;;;;;;16.43;100.00;98372.22;2608774;28;20559;-84
2023/06/06 01:18:37;;;;;;;10.98;8.27;;;;;;;16.42;100.00;98376.66;2608780;28;21009;-84
2023/06/06 01:19:56;;;;;;;10.95;8.40;;;;;;;16.46;100.00;98372.91;2610822;28;20076;-84
2023/06/06 01:21:12;;;;;;;12.32;8.13;;;;;;;16.42;100.00;98374.00;2609895;28;20053;-83
2023/06/06 01:22:28;;;;;;;12.15;8.07;;;;;;;16.17;100.00;98371.81;2610904;28;20127;-84
2023/06/06 01:23:45;;;;;;;10.77;8.55;;;;;;;16.15;100.00;98369.25;2610208;28;20479;-84
2023/06/06 01:25:03;;;;;;;9.73;7.57;;;;;;;16.33;100.00;98374.47;2610463;28;20519;-84
2023/06/06 01:26:18;;;;;;;9.70;7.55;;;;;;;16.07;100.00;98363.53;2609349;28;20646;-84
2023/06/06 01:27:34;;;;;;;11.57;7.45;;;;;;;16.16;100.00;98356.91;2609706;28;20064;-84
2023/06/06 01:28:49;;;;;;;9.50;7.25;;;;;;;16.07;100.00;98360.88;2610144;28;20493;-83
2023/06/06 01:30:06;;;;;;;9.23;7.57;;;;;;;16.10;100.00;98366.00;2610342;28;20049;-84
2023/06/06 01:31:23;;;;;;;8.82;7.10;;;;;;;16.09;100.00;98361.66;2609708;28;20051;-83
2023/06/06 01:33:17;;;;;;;8.63;7.10;;;;;;;16.15;100.00;98360.47;2610478;28;20053;-84
2023/06/06 01:34:41;;;;;;;7.63;6.55;;;;;;;16.27;100.00;98361.63;2598037;28;20049;-84
2023/06/06 01:36:10;;;;;;;9.80;7.03;;;;;;;16.31;100.00;98363.16;2598513;28;20171;-83
2023/06/06 01:37:50;;;;;;;8.45;6.57;;;;;;;16.19;100.00;98357.56;2609459;28;20063;-83
2023/06/06 01:39:13;;;;;;;7.93;6.50;;;;;;;16.22;100.00;98359.22;2608845;28;20122;-84
2023/06/06 01:40:31;;;;;;;6.95;5.93;;;;;;;16.12;100.00;98350.91;2609926;28;20045;-83
2023/06/06 01:41:51;;;;;;;7.13;5.88;;;;;;;16.03;100.00;98349.63;2609476;28;20511;-85
2023/06/06 01:43:09;;;;;;;7.28;6.50;;;;;;;16.08;100.00;98355.50;2610137;28;20748;-87
2023/06/06 01:44:27;;;;;;;6.22;5.45;;;;;;;16.18;100.00;98360.31;2609577;28;20053;-84
2023/06/06 01:45:45;;;;;;;6.00;5.40;;;;;;;16.28;100.00;98356.25;2610398;28;20072;-84
2023/06/06 01:47:02;;;;;;;8.18;6.10;;;;;;;16.28;100.00;98358.03;2609737;28;20092;-84
2023/06/06 01:48:19;;;;;;;6.93;6.07;;;;;;;16.21;100.00;98352.22;2610391;28;20045;-85
2023/06/06 01:49:35;;;;;;;7.43;5.80;;;;;;;16.14;100.00;98351.69;2609799;28;20520;-84
2023/06/06 01:50:51;;;;;;;7.18;5.60;;;;;;;16.30;100.00;98356.16;2609956;28;20103;-85
2023/06/06 01:52:08;;;;;;;7.43;5.90;;;;;;;16.31;100.00;98348.16;2609918;28;20509;-85
2023/06/06 01:53:24;;;;;;;6.50;5.22;;;;;;;16.28;100.00;98350.09;2609627;28;20080;-85
2023/06/06 01:54:40;;;;;;;7.00;5.32;;;;;;;16.30;100.00;98343.81;2609754;28;20053;-86
2023/06/06 01:55:56;;;;;;;5.90;5.22;;;;;;;16.19;100.00;98354.09;2609843;28;20507;-86
2023/06/06 01:57:12;;;;;;;6.30;5.22;;;;;;;16.18;100.00;98352.38;2610068;28;20135;-86
2023/06/06 01:58:27;;;;;;;6.05;5.30;;;;;;;16.22;100.00;98353.94;2609655;28;20053;-85
2023/06/06 01:59:43;;;;;;;8.38;5.30;;;;;;;16.29;100.00;98355.31;2608548;28;20428;-85
2023/06/06 02:00:58;;;;;;;6.38;5.40;;;;;;;16.43;100.00;98357.22;2609366;28;20048;-85
2023/06/06 02:02:15;;;;;;;6.32;5.32;;;;;;;16.22;100.00;98356.56;2610320;28;20079;-85
2023/06/06 02:03:30;;;;;;;5.30;4.80;;;;;;;15.99;100.00;98348.03;2609566;28;20075;-85
2023/06/06 02:04:48;;;;;;;7.30;5.40;;;;;;;16.16;100.00;98352.47;2610048;28;20506;-85
2023/06/06 02:06:04;;;;;;;6.03;4.70;;;;;;;16.08;100.00;98352.03;2609369;28;20083;-84
2023/06/06 02:07:20;;;;;;;6.05;5.30;;;;;;;16.08;100.00;98350.22;2609998;28;20041;-85
2023/06/06 02:08:36;;;;;;;6.05;4.97;;;;;;;16.09;100.00;98354.56;2609628;28;20143;-85
2023/06/06 02:09:51;;;;;;;5.65;4.75;;;;;;;15.90;100.00;98353.81;2609416;28;20114;-85
2023/06/06 02:11:07;;;;;;;5.32;4.13;;;;;;;16.03;100.00;98354.03;2608687;28;20080;-87
2023/06/06 02:12:22;;;;;;;6.38;4.70;;;;;;;16.01;100.00;98354.13;2609366;28;20049;-85
2023/06/06 02:13:38;;;;;;;4.93;4.30;;;;;;;16.03;100.00;98354.03;2609616;28;20052;-84
2023/06/06 02:14:54;;;;;;;5.53;4.53;;;;;;;15.81;100.00;98344.56;2610138;28;20049;-85
2023/06/06 02:16:09;;;;;;;6.15;4.93;;;;;;;15.92;100.00;98349.31;2609440;28;20049;-85
2023/06/06 02:17:26;;;;;;;5.30;4.80;;;;;;;15.90;100.00;98352.03;2609992;28;20056;-85
2023/06/06 02:18:44;;;;;;;6.72;4.88;;;;;;;15.78;100.00;98347.34;2609214;28;21078;-85
2023/06/06 02:20:00;;;;;;;6.75;4.28;;;;;;;15.62;100.00;98350.75;2609804;28;20056;-85
2023/06/06 02:21:15;;;;;;;6.95;5.40;;;;;;;15.88;100.00;98351.22;2609421;28;20411;-85
2023/06/06 02:22:31;;;;;;;5.55;4.82;;;;;;;15.89;100.00;98345.03;2609814;28;20053;-85
2023/06/06 02:23:46;;;;;;;6.95;5.25;;;;;;;15.99;100.00;98347.22;2609456;28;20053;-86
2023/06/06 02:25:03;;;;;;;6.72;5.03;;;;;;;15.93;100.00;98346.59;2610049;28;20511;-85
2023/06/06 02:26:21;;;;;;;5.15;4.65;;;;;;;16.00;100.00;98349.78;2609660;28;20074;-85
2023/06/06 02:27:37;;;;;;;6.78;4.70;;;;;;;16.03;100.00;98346.97;2610148;28;20524;-85
2023/06/06 02:28:53;;;;;;;6.00;5.13;;;;;;;16.11;100.00;98349.22;2609111;28;20099;-85
2023/06/06 02:30:08;;;;;;;4.97;4.40;;;;;;;16.04;100.00;98346.03;2606945;28;20045;-85
2023/06/06 02:31:26;;;;;;;6.10;4.40;;;;;;;16.12;100.00;98347.41;2605959;28;20079;-85
2023/06/06 02:32:41;;;;;;;5.85;4.55;;;;;;;16.08;100.00;98347.56;2609315;28;20611;-85
2023/06/06 02:33:57;;;;;;;5.07;4.45;;;;;;;16.06;100.00;98349.44;2609625;28;20102;-84
2023/06/06 02:35:12;;;;;;;4.57;4.18;;;;;;;16.13;100.00;98349.97;2609156;28;20419;-85
2023/06/06 02:36:29;;;;;;;5.82;4.32;;;;;;;16.06;100.00;98351.22;2609771;28;20213;-85
2023/06/06 02:37:45;;;;;;;5.03;4.53;;;;;;;16.17;100.00;98353.31;2609285;28;20214;-85
2023/06/06 02:39:00;;;;;;;4.60;4.10;;;;;;;16.26;100.00;98349.34;2610028;28;20191;-85
2023/06/06 02:40:16;;;;;;;6.85;4.38;;;;;;;16.26;100.00;98346.69;2609446;28;20094;-84
2023/06/06 02:41:32;;;;;;;5.88;4.35;;;;;;;16.29;100.00;98349.16;2609746;28;20588;-85
2023/06/06 02:42:47;;;;;;;5.00;4.50;;;;;;;16.18;100.00;98349.75;2609513;28;20504;-85
2023/06/06 02:44:03;;;;;;;6.30;4.90;;;;;;;16.17;100.00;98346.25;2603826;28;20049;-85
2023/06/06 02:45:21;;;;;;;5.05;4.32;;;;;;;16.15;100.00;98342.81;2607929;28;20056;-85
2023/06/06 02:46:36;;;;;;;6.07;4.30;;;;;;;16.14;100.00;98346.41;2610057;28;20045;-85
2023/06/06 02:47:52;;;;;;;6.10;4.72;;;;;;;16.09;100.00;98343.16;2609081;28;20136;-86
2023/06/06 02:49:08;;;;;;;5.28;4.78;;;;;;;16.09;100.00;98346.63;2609605;28;20045;-85
2023/06/06 02:50:24;;;;;;;5.85;4.78;;;;;;;16.13;100.00;98343.84;2609282;28;20049;-85
2023/06/06 02:51:40;;;;;;;5.00;4.50;;;;;;;16.01;100.00;98340.06;2609913;28;20492;-85
2023/06/06 02:52:56;;;;;;;5.65;5.05;;;;;;;16.04;100.00;98348.69;2609432;28;20080;-85
2023/06/06 02:54:11;;;;;;;5.57;4.53;;;;;;;16.15;100.00;98347.28;2609468;28;20049;-88
2023/06/06 02:55:27;;;;;;;5.43;4.93;;;;;;;15.98;100.00;98356.91;2609026;28;20044;-85
2023/06/06 02:56:42;;;;;;;6.57;4.88;;;;;;;16.07;100.00;98347.69;2609201;28;20455;-85
2023/06/06 02:57:58;;;;;;;5.90;5.20;;;;;;;15.99;100.00;98352.50;2608957;28;20049;-85
2023/06/06 02:59:13;;;;;;;5.20;4.70;;;;;;;15.88;100.00;98348.56;2609555;28;20049;-85
2023/06/06 03:00:29;;;;;;;5.78;5.10;;;;;;;15.94;100.00;98345.66;2608639;28;20063;-85
2023/06/06 03:01:48;;;;;;;5.60;5.00;;;;;;;16.08;100.00;98349.38;2608817;28;20048;-85
2023/06/06 03:03:04;;;;;;;5.97;4.88;;;;;;;15.90;100.00;98349.38;2609331;28;20575;-85
2023/06/06 03:04:21;;;;;;;5.75;4.80;;;;;;;15.99;100.00;98349.84;2609180;28;20056;-85
2023/06/06 03:05:37;;;;;;;6.45;5.45;;;;;;;15.98;100.00;98348.16;2609656;28;20081;-85
2023/06/06 03:06:53;;;;;;;8.65;5.18;;;;;;;16.04;100.00;98345.16;2609004;28;20049;-86
2023/06/06 03:08:09;;;;;;;5.75;4.78;;;;;;;16.08;100.00;98347.56;2608599;28;20505;-85
2023/06/06 03:09:26;;;;;;;6.00;5.20;;;;;;;16.10;100.00;98348.34;2608260;28;20051;-85
2023/06/06 03:10:47;;;;;;;5.05;4.55;;;;;;;15.96;100.00;98348.22;2608738;28;20052;-85
2023/06/06 03:12:03;;;;;;;6.35;5.07;;;;;;;16.15;100.00;98348.09;2608077;28;20076;-85
2023/06/06 03:13:18;;;;;;;7.38;4.88;;;;;;;16.17;100.00;98351.53;2609427;28;20519;-85
2023/06/06 03:14:34;;;;;;;6.05;5.10;;;;;;;16.17;100.00;98343.59;2608154;28;20045;-86
2023/06/06 03:15:50;;;;;;;6.30;4.75;;;;;;;16.11;100.00;98354.50;2607659;28;20131;-85
2023/06/06 03:17:07;;;;;;;7.13;4.70;;;;;;;16.15;100.00;98348.09;2608112;28;20068;-85
2023/06/06 03:18:24;;;;;;;5.72;4.55;;;;;;;16.09;100.00;98357.19;2608972;28;20041;-85
2023/06/06 03:19:42;;;;;;;6.20;4.85;;;;;;;16.10;100.00;98351.00;2608521;28;20084;-85
2023/06/06 03:20:58;;;;;;;5.13;4.55;;;;;;;16.18;100.00;98355.88;2607619;28;20049;-85
2023/06/06 03:22:13;;;;;;;6.10;4.75;;;;;;;16.22;100.00;98361.84;2607388;28;20052;-85
2023/06/06 03:23:29;;;;;;;5.68;4.80;;;;;;;16.23;100.00;98350.34;2609645;28;20106;-84
2023/06/06 03:24:45;;;;;;;7.03;4.72;;;;;;;16.12;100.00;98356.19;2606991;28;20134;-84
2023/06/06 03:26:01;;;;;;;5.45;4.75;;;;;;;16.15;100.00;98353.41;2608556;28;20048;-85
2023/06/06 03:27:16;;;;;;;6.40;4.70;;;;;;;16.16;100.00;98359.53;2609131;28;20053;-84
2023/06/06 03:28:32;;;;;;;5.43;4.47;;;;;;;16.07;100.00;98355.59;2609342;28;20044;-84
2023/06/06 03:29:48;;;;;;;4.68;4.28;;;;;;;16.12;100.00;98352.69;2605929;28;20468;-84
2023/06/06 03:31:07;;;;;;;4.57;3.88;;;;;;;16.26;100.00;98355.47;2605828;28;20056;-84
2023/06/06 03:32:22;;;;;;;7.63;4.53;;;;;;;16.27;100.00;98357.16;2608656;28;20055;-85
2023/06/06 03:33:38;;;;;;;5.03;4.13;;;;;;;16.30;100.00;98353.53;2607589;28;20056;-84
2023/06/06 03:34:53;;;;;;;4.93;4.28;;;;;;;16.29;100.00;98359.75;2608189;28;20098;-85
2023/06/06 03:36:10;;;;;;;4.65;4.22;;;;;;;16.33;100.00;98354.22;2608095;28;20057;-85
2023/06/06 03:37:25;;;;;;;5.07;4.57;;;;;;;16.21;100.00;98353.09;2608448;28;20413;-85
2023/06/06 03:38:40;;;;;;;5.05;4.30;;;;;;;16.27;100.00;98351.03;2607640;28;20052;-85
2023/06/06 03:39:56;;;;;;;5.15;4.45;;;;;;;15.97;100.00;98346.44;2608310;28;20041;-85
2023/06/06 03:41:12;;;;;;;5.18;3.92;;;;;;;15.80;100.00;98342.84;2607286;28;20059;-85
2023/06/06 03:42:27;;;;;;;4.90;4.38;;;;;;;16.04;100.00;98343.41;2607996;28;20045;-85
2023/06/06 03:43:43;;;;;;;5.40;4.70;;;;;;;15.89;100.00;98338.88;2607399;28;20368;-86
2023/06/06 03:44:59;;;;;;;7.80;5.05;;;;;;;16.01;100.00;98350.63;2608271;28;20045;-84
2023/06/06 03:46:14;;;;;;;7.90;4.90;;;;;;;16.12;100.00;98348.28;2608517;28;20045;-84
2023/06/06 03:47:30;;;;;;;7.82;4.97;;;;;;;16.04;100.00;98347.81;2608599;28;20140;-84
2023/06/06 03:48:45;;;;;;;6.00;5.15;;;;;;;16.09;100.00;98344.00;2608574;28;20049;-85
2023/06/06 03:50:01;;;;;;;6.32;5.32;;;;;;;16.15;100.00;98344.63;2608573;28;20053;-84
2023/06/06 03:51:17;;;;;;;6.40;4.85;;;;;;;16.24;100.00;98346.78;2607612;28;20420;-84
2023/06/06 03:52:32;;;;;;;5.40;4.45;;;;;;;15.82;100.00;98346.25;2607667;28;20485;-84
2023/06/06 03:53:48;;;;;;;4.93;4.43;;;;;;;15.88;100.00;98342.47;2608671;28;20115;-84
2023/06/06 03:55:04;;;;;;;4.97;4.43;;;;;;;15.82;100.00;98340.97;2609368;28;20072;-84
2023/06/06 03:56:23;;;;;;;6.15;4.60;;;;;;;16.01;100.00;98340.06;2608575;28;20076;-84
2023/06/06 03:57:40;;;;;;;5.22;4.60;;;;;;;16.02;100.00;98347.91;2608766;28;20092;-84
2023/06/06 03:58:56;;;;;;;5.85;4.60;;;;;;;16.09;100.00;98344.00;2608772;28;20045;-84
2023/06/06 04:00:13;;;;;;;5.15;4.65;;;;;;;16.05;100.00;98352.16;2608652;28;20496;-84
2023/06/06 04:01:31;;;;;;;5.82;5.00;;;;;;;16.00;100.00;98348.91;2608259;28;20052;-85
2023/06/06 04:02:48;;;;;;;5.88;5.00;;;;;;;16.05;100.00;98353.03;2608669;28;20127;-85
2023/06/06 04:04:03;;;;;;;5.80;4.75;;;;;;;16.15;100.00;98347.28;2608765;28;20045;-84
2023/06/06 04:05:19;;;;;;;5.45;4.53;;;;;;;16.05;100.00;98352.16;2609188;28;20051;-84
2023/06/06 04:06:35;;;;;;;4.53;4.00;;;;;;;15.98;100.00;98348.16;2608288;28;20500;-85
2023/06/06 04:07:51;;;;;;;5.70;4.55;;;;;;;15.92;100.00;98338.75;2608479;28;20072;-85
2023/06/06 04:09:10;;;;;;;5.43;4.60;;;;;;;15.99;100.00;98337.47;2608457;28;20053;-85
2023/06/06 04:10:26;;;;;;;5.07;4.57;;;;;;;16.08;100.00;98342.28;2608683;28;20049;-85
2023/06/06 04:11:42;;;;;;;4.70;4.10;;;;;;;15.91;100.00;98340.53;2608286;28;20607;-85
2023/06/06 04:12:57;;;;;;;5.07;4.35;;;;;;;15.85;100.00;98345.22;2607735;28;20044;-85
2023/06/06 04:14:13;;;;;;;6.22;4.47;;;;;;;15.80;100.00;98342.84;2608149;28;20068;-85
2023/06/06 04:15:29;;;;;;;5.63;5.03;;;;;;;15.78;100.00;98340.28;2608496;28;20526;-85
2023/06/06 04:16:44;;;;;;;6.03;5.25;;;;;;;15.81;100.00;98334.84;2607519;28;20049;-85
2023/06/06 04:18:00;;;;;;;6.13;5.53;;;;;;;15.68;100.00;98347.81;2607931;28;20053;-85
2023/06/06 04:19:15;;;;;;;6.18;5.55;;;;;;;15.91;100.00;98340.53;2608306;28;20044;-85
2023/06/06 04:20:34;;;;;;;6.70;5.70;;;;;;;15.79;100.00;98341.16;2604063;28;20049;-84
2023/06/06 04:21:50;;;;;;;6.72;5.40;;;;;;;15.63;100.00;98341.06;2607472;28;20106;-85
2023/06/06 04:23:06;;;;;;;6.18;5.57;;;;;;;15.57;100.00;98341.34;2605507;28;20084;-85
2023/06/06 04:24:22;;;;;;;6.72;5.97;;;;;;;15.72;100.00;98337.09;2606068;28;20041;-86
2023/06/06 04:25:37;;;;;;;6.80;5.65;;;;;;;15.43;100.00;98340.25;2608187;28;20052;-85
2023/06/06 04:26:53;;;;;;;7.18;6.35;;;;;;;15.46;100.00;98337.50;2608245;28;20122;-84
2023/06/06 04:28:09;;;;;;;7.55;6.00;;;;;;;15.57;100.00;98339.59;2608156;28;20059;-85
2023/06/06 04:29:24;;;;;;;8.35;6.75;;;;;;;15.45;100.00;98335.78;2608531;28;20045;-85
2023/06/06 04:30:40;;;;;;;8.38;6.68;;;;;;;15.55;100.00;98336.16;2608441;28;20417;-85
2023/06/06 04:31:56;;;;;;;8.27;6.68;;;;;;;15.36;100.00;98334.44;2608470;28;20075;-85
2023/06/06 04:33:12;;;;;;;8.07;6.10;;;;;;;15.60;100.00;98338.59;2608400;28;20048;-85
2023/06/06 04:34:31;;;;;;;7.68;6.88;;;;;;;15.75;100.00;98335.16;2608065;28;20053;-85
2023/06/06 04:35:49;;;;;;;13.70;6.85;;;;;;;15.56;100.00;98335.25;2607430;28;20094;-85
2023/06/06 04:37:04;;;;;;;8.25;5.97;;;;;;;15.39;100.00;98331.66;2607440;28;20984;-85
2023/06/06 04:38:22;;;;;;;7.32;6.22;;;;;;;15.70;100.00;98328.41;2607879;28;20048;-85
2023/06/06 04:39:39;;;;;;;7.57;6.20;;;;;;;15.38;100.00;98335.22;2607372;28;20079;-85
2023/06/06 04:40:54;;;;;;;8.27;6.68;;;;;;;15.64;100.00;98333.03;2607175;28;20052;-85
2023/06/06 04:42:10;;;;;;;8.10;7.03;;;;;;;15.53;100.00;98335.41;2608077;28;20118;-85
2023/06/06 04:43:27;;;;;;;8.45;7.03;;;;;;;15.32;100.00;98332.88;2607280;28;20049;-85
2023/06/06 04:44:45;;;;;;;9.70;7.10;;;;;;;15.25;100.00;98334.13;2607921;28;20045;-85
2023/06/06 04:46:01;;;;;;;8.60;7.10;;;;;;;15.57;100.00;98347.50;2607728;28;20056;-85
2023/06/06 04:47:19;;;;;;;9.32;7.00;;;;;;;15.49;100.00;98339.97;2608657;28;20088;-85
2023/06/06 04:48:35;;;;;;;9.85;6.80;;;;;;;15.21;100.00;98336.06;2608188;28;20508;-85
2023/06/06 04:49:51;;;;;;;9.65;7.43;;;;;;;15.49;100.00;98333.81;2606928;28;20083;-86
2023/06/06 04:51:08;;;;;;;7.72;6.93;;;;;;;15.61;100.00;98342.94;2596886;28;20036;-85
2023/06/06 04:52:24;;;;;;;8.90;7.10;;;;;;;15.62;100.00;98348.09;2607486;28;20106;-85
2023/06/06 04:53:42;;;;;;;9.05;6.97;;;;;;;15.68;100.00;98342.53;2609479;28;20081;-85
2023/06/06 04:54:58;;;;;;;9.18;7.32;;;;;;;15.76;100.00;98338.63;2610478;28;20060;-85
2023/06/06 04:56:14;;;;;;;9.75;7.43;;;;;;;15.89;100.00;98342.38;2609829;28;20493;-85
2023/06/06 04:57:30;;;;;;;9.15;7.30;;;;;;;15.94;100.00;98352.72;2607049;28;20040;-85
2023/06/06 04:58:46;;;;;;;7.60;6.80;;;;;;;15.86;100.00;98347.81;2607974;28;20072;-85
2023/06/06 05:00:05;;;;;;;9.05;7.38;;;;;;;15.80;100.00;98353.41;2610146;28;21109;-87
2023/06/06 05:01:23;;;;;;;9.02;6.78;;;;;;;15.75;100.00;98351.00;2610536;28;20044;-85
2023/06/06 05:02:39;;;;;;;8.13;7.32;;;;;;;15.97;100.00;98349.06;2610287;28;20136;-85
2023/06/06 05:03:55;;;;;;;7.50;6.20;;;;;;;16.08;100.00;98350.22;2610385;28;20053;-85
2023/06/06 05:05:11;;;;;;;7.78;6.70;;;;;;;16.13;100.00;98354.41;2609980;28;20104;-87
2023/06/06 05:06:27;;;;;;;8.27;6.70;;;;;;;16.02;100.00;98353.19;2610963;28;20053;-86
2023/06/06 05:07:42;;;;;;;7.22;6.30;;;;;;;15.88;100.00;98353.03;2610235;28;20090;-85
2023/06/06 05:09:00;;;;;;;8.50;6.93;;;;;;;15.90;100.00;98349.38;2610660;28;20098;-85
2023/06/06 05:10:15;;;;;;;9.13;6.63;;;;;;;15.79;100.00;98351.72;2609622;28;20053;-84
2023/06/06 05:11:31;;;;;;;9.73;7.95;;;;;;;15.91;100.00;98359.00;2610155;28;20106;-86
2023/06/06 05:12:46;;;;;;;8.82;7.22;;;;;;;15.99;100.00;98355.97;2610370;28;20045;-83
2023/06/06 05:14:02;;;;;;;8.20;6.90;;;;;;;16.05;100.00;98358.31;2610424;28;20052;-82
2023/06/06 05:15:18;;;;;;;8.10;6.93;;;;;;;16.00;100.00;98357.69;2609683;28;20353;-84
2023/06/06 05:16:34;;;;;;;8.68;7.60;;;;;;;15.99;100.00;98363.06;2609850;28;20077;-83
2023/06/06 05:17:58;;;;;;;9.48;7.22;;;;;;;15.93;100.00;98359.81;2608516;28;20056;-83
2023/06/06 05:19:15;;;;;;;8.50;7.57;;;;;;;15.89;100.00;98352.94;2609909;28;20730;-84
2023/06/06 05:20:31;;;;;;;9.45;7.45;;;;;;;15.69;100.00;98364.50;2604411;28;20103;-83
2023/06/06 05:21:47;;;;;;;10.75;7.68;;;;;;;15.93;100.00;98361.56;2610546;28;20045;-84
2023/06/06 05:23:05;;;;;;;8.75;7.40;;;;;;;16.02;100.00;98357.59;2606543;28;20049;-83
2023/06/06 05:24:20;;;;;;;9.15;7.18;;;;;;;16.02;100.00;98354.97;2609189;28;20045;-84
2023/06/06 05:25:36;;;;;;;8.38;7.03;;;;;;;16.09;100.00;98356.38;2608782;28;20048;-83
2023/06/06 05:26:51;;;;;;;9.48;7.43;;;;;;;15.91;100.00;98358.16;2609757;28;20041;-83
2023/06/06 05:28:07;;;;;;;9.00;7.10;;;;;;;15.80;100.00;98359.53;2608491;28;20994;-83
2023/06/06 05:29:25;;;;;;;9.35;7.45;;;;;;;15.90;100.00;98353.81;2608528;28;20041;-84
2023/06/06 05:30:40;;;;;;;8.75;7.47;;;;;;;15.67;100.00;98348.75;2608796;28;20102;-84
2023/06/06 05:31:56;;;;;;;9.93;7.68;;;;;;;15.65;100.00;98349.75;2609561;28;20431;-84
2023/06/06 05:33:11;;;;;;;9.73;7.50;;;;;;;15.90;100.00;98346.75;2607505;28;20052;-84
2023/06/06 05:34:27;;;;;;;8.95;7.68;;;;;;;16.01;100.00;98353.25;2606700;28;20130;-84
2023/06/06 05:35:42;;;;;;;9.18;7.70;;;;;;;16.08;100.00;98352.03;2609344;28;20056;-83
2023/06/06 05:36:58;;;;;;;8.65;7.47;;;;;;;16.02;100.00;98350.56;2608703;28;20057;-84
2023/06/06 05:38:15;;;;;;;8.95;7.30;;;;;;;16.13;100.00;98354.41;2609480;28;20080;-83
2023/06/06 05:39:30;;;;;;;8.63;6.88;;;;;;;16.31;100.00;98350.81;2609477;28;20055;-83
2023/06/06 05:40:46;;;;;;;8.57;7.10;;;;;;;16.38;100.00;98356.63;2610192;28;20032;-84
2023/06/06 05:42:02;;;;;;;8.88;7.05;;;;;;;16.24;100.00;98360.84;2608944;28;20452;-86
2023/06/06 05:43:17;;;;;;;7.70;6.68;;;;;;;16.22;100.00;98362.72;2606147;28;20344;-84
2023/06/06 05:44:33;;;;;;;8.10;6.72;;;;;;;16.28;100.00;98361.53;2606660;28;20045;-83
2023/06/06 05:45:48;;;;;;;9.02;6.90;;;;;;;15.97;100.00;98352.56;2608765;28;20051;-82
2023/06/06 05:47:04;;;;;;;8.20;6.72;;;;;;;16.08;100.00;98362.59;2607712;28;20532;-84
2023/06/06 05:48:20;;;;;;;8.60;6.95;;;;;;;16.08;100.00;98358.13;2606876;28;20110;-82
2023/06/06 05:49:35;;;;;;;9.70;7.88;;;;;;;16.24;100.00;98362.63;2609886;28;20464;-81
2023/06/06 05:50:51;;;;;;;8.48;7.40;;;;;;;16.33;100.00;98358.63;2609898;28;20041;-81
2023/06/06 05:52:06;;;;;;;8.43;7.53;;;;;;;16.28;100.00;98364.19;2609649;28;20505;-81
2023/06/06 05:53:23;;;;;;;8.43;7.05;;;;;;;16.40;100.00;98357.38;2609907;28;20094;-80
2023/06/06 05:54:39;;;;;;;10.55;7.32;;;;;;;16.50;100.00;98355.97;2609412;28;20129;-82
2023/06/06 05:55:54;;;;;;;7.75;6.78;;;;;;;16.33;100.00;98364.78;2609339;28;20048;-81